Southgate, MI (48195)

08:45 EST 3. Prosinec 2016 (GMT -0500)
Burns and Eureka | | Change Station

Výška 587 ft 42.20 °N, 83.19 °W | Updated 10 seconds ago

Overcast
Zataženo
36.5 °F
Pocit jako 36 °F
S
1.8
Vítr proměnlivý Vítr od ZJZ
Gusts 2.5 mil/h

Dnes
Vysoké -- | Nízké -- °F
--% Možnost srážek
Včera
Vysoké -- | Nízké -- °F
Precip. -- inčů
Tlak 30.30 inčů
Viditelnost 10.0 mílí
Zataženo Zataženo 2900 ft
Ochlazování větrem 36 °F
Rosný bod 21 °F
Vlhkost 54%
Dešťové srážky 0.00 inčů
Sněhová pokrývka Není k dispozici
7:44 AM 5:01 PM
Dorůstající srpek, 15% visible
METAR KONZ 031333Z AUTO 27005KT 10SM OVC029 02/M01 A3030 RMK AO2 T00201013
Tlak 30.30 inčů
Viditelnost 10.0 mílí
Zataženo Zataženo 2900 ft
Ochlazování větrem 36 °F
Rosný bod 21 °F
Vlhkost 54%
Dešťové srážky 0.00 inčů
Sněhová pokrývka Není k dispozici
7:44 AM 5:01 PM
Dorůstající srpek, 15% visible
METAR KONZ 031333Z AUTO 27005KT 10SM OVC029 02/M01 A3030 RMK AO2 T00201013

10-Day Weather Forecast

Almanac

Astronomie

Dec. 03, 2016 Východ Západ
Skutečný čas
Občanský soumrak
Námořní soumrak
Astronomický soumrak
Měsíc
Délka denního světla
Délka dne
Tomorrow will be .
, % of the Moon is Illuminated

Dnešní extrémy

State Highs State Lows

Community

WunderPhotos

Upload Photos

1,955,446 snímků staženo!

WunderBlog® & News

Nearby

Kvalita ovzduší

  Kvalita ovzduší Index kvality ovzduší Polutant
Not available.

Výška sněhu

Station Hloubka Nadmořská výška

Seizmická činnost

Město Distance Mag. Čas & datum
Minimální zobrazený rozsah je 2.5.

Pobřežní teplota vody

Lokalita Teplota

Stations

Poblíž povětrnostní stanice

Lokace stanice Tepl. Ochlazování větrem Rosný bod Vlhkost Vítr Precip. Výška Čas hlášení Typ
                   

Watches & Warnings

There are currently no watches in effect.